createdAt,value
2022-11-16T00:02:01.473Z,65.03
2022-11-16T00:04:30.520Z,66.88
2022-11-16T00:06:59.154Z,65.53
2022-11-16T00:09:29.771Z,64.19
2022-11-16T00:12:01.837Z,63.91
2022-11-16T00:14:33.101Z,63.41
2022-11-16T00:17:03.845Z,64.63
2022-11-16T00:19:32.899Z,63.17
2022-11-16T00:22:01.307Z,62.37
2022-11-16T00:24:30.148Z,61.92
2022-11-16T00:26:59.982Z,60.92
2022-11-16T00:29:29.137Z,60.43
2022-11-16T00:31:58.006Z,59.57
2022-11-16T00:34:26.830Z,59.57
2022-11-16T00:36:55.424Z,58.93
2022-11-16T00:39:24.219Z,58.40
2022-11-16T00:41:53.125Z,57.99
2022-11-16T00:44:23.711Z,57.61
2022-11-16T00:46:52.555Z,57.73
2022-11-16T00:49:21.650Z,57.84
2022-11-16T00:51:50.106Z,57.62
2022-11-16T00:54:19.183Z,57.84
2022-11-16T00:56:47.657Z,57.73
2022-11-16T00:59:16.529Z,59.06
2022-11-16T01:01:46.425Z,59.61
2022-11-16T01:04:15.244Z,59.42
2022-11-16T01:06:44.743Z,60.46
2022-11-16T01:09:13.571Z,60.35
2022-11-16T01:11:59.892Z,61.23
2022-11-16T01:14:28.633Z,60.24
2022-11-16T01:16:58.405Z,60.01
2022-11-16T01:19:27.241Z,60.32
2022-11-16T01:21:55.699Z,60.36
2022-11-16T01:24:24.518Z,60.46
2022-11-16T01:26:56.843Z,60.27
2022-11-16T01:29:27.454Z,60.16
2022-11-16T01:32:00.215Z,60.25
2022-11-16T01:34:29.193Z,58.27
2022-11-16T01:37:04.700Z,58.64
2022-11-16T01:39:36.940Z,58.42
2022-11-16T01:42:05.565Z,57.23
2022-11-16T01:45:03.505Z,57.81
2022-11-16T01:47:34.682Z,57.45
2022-11-16T01:50:11.301Z,57.19
2022-11-16T01:52:47.398Z,57.21
2022-11-16T01:55:17.441Z,56.99
2022-11-16T01:58:00.519Z,57.51
2022-11-16T02:00:30.512Z,57.25
2022-11-16T02:03:14.989Z,57.09
2022-11-16T02:06:06.783Z,56.78
2022-11-16T02:09:13.820Z,56.92
2022-11-16T02:12:09.074Z,56.92
2022-11-16T02:14:54.000Z,56.87
2022-11-16T02:17:37.242Z,56.89
2022-11-16T02:20:51.508Z,57.10
2022-11-16T02:23:47.560Z,56.87
2022-11-16T02:26:36.557Z,56.25
2022-11-16T02:29:20.992Z,56.24
2022-11-16T02:31:59.018Z,56.02
2022-11-16T02:34:33.535Z,56.60
2022-11-16T02:37:06.910Z,57.21
2022-11-16T02:39:41.260Z,57.50
2022-11-16T02:42:16.104Z,57.73
2022-11-16T02:44:51.010Z,57.79
2022-11-16T02:47:24.433Z,58.00
2022-11-16T02:49:58.574Z,58.19
2022-11-16T02:52:29.652Z,58.42
2022-11-16T02:54:58.586Z,58.27
2022-11-16T02:57:39.123Z,58.52
2022-11-16T03:00:20.017Z,58.22
2022-11-16T03:02:56.421Z,58.34
2022-11-16T03:05:33.068Z,58.75
2022-11-16T03:08:17.766Z,58.43
2022-11-16T03:11:09.415Z,58.67
2022-11-16T03:13:39.665Z,58.20
2022-11-16T03:16:16.107Z,57.81
2022-11-16T03:18:48.391Z,57.78
2022-11-16T03:21:25.180Z,58.20
2022-11-16T03:23:53.912Z,58.23
2022-11-16T03:26:29.193Z,57.93
2022-11-16T03:29:02.966Z,57.83
2022-11-16T03:31:40.316Z,57.84
2022-11-16T03:34:16.265Z,58.04
2022-11-16T03:36:48.782Z,58.05
2022-11-16T03:39:22.487Z,59.20
2022-11-16T03:41:52.149Z,59.63
2022-11-16T03:44:21.775Z,61.27
2022-11-16T03:46:51.961Z,60.55
2022-11-16T03:49:22.571Z,61.50
2022-11-16T03:51:53.595Z,60.88
2022-11-16T03:54:22.598Z,61.07
2022-11-16T03:56:51.478Z,61.49
2022-11-16T03:59:20.066Z,60.99
2022-11-16T04:01:48.911Z,60.13
2022-11-16T04:04:36.504Z,59.86
2022-11-16T04:07:23.821Z,59.80
2022-11-16T04:10:09.687Z,59.58
2022-11-16T04:12:56.872Z,59.15
2022-11-16T04:15:42.688Z,58.25
2022-11-16T04:18:29.351Z,58.16
2022-11-16T04:21:16.907Z,57.28
2022-11-16T04:24:04.560Z,57.20
2022-11-16T04:26:51.188Z,56.72
2022-11-16T04:29:20.534Z,56.53
2022-11-16T04:32:06.098Z,55.92
2022-11-16T04:34:53.022Z,55.31
2022-11-16T04:37:41.059Z,55.00
2022-11-16T04:40:11.500Z,54.47
2022-11-16T04:42:38.932Z,54.20
2022-11-16T04:45:26.807Z,53.97
2022-11-16T04:47:55.588Z,53.00
2022-11-16T04:50:29.756Z,52.37
2022-11-16T04:53:01.191Z,52.02
2022-11-16T04:55:31.198Z,51.95
2022-11-16T04:58:00.447Z,51.77
2022-11-16T05:00:29.800Z,51.57
2022-11-16T05:03:01.248Z,51.83
2022-11-16T05:05:31.504Z,51.52
2022-11-16T05:08:03.048Z,52.71
2022-11-16T05:10:33.889Z,51.96
2022-11-16T05:13:02.608Z,52.49
2022-11-16T05:15:31.373Z,51.76
2022-11-16T05:18:01.371Z,51.82
2022-11-16T05:20:48.759Z,51.67
2022-11-16T05:23:37.279Z,51.86
2022-11-16T05:26:11.269Z,51.83
2022-11-16T05:28:40.247Z,51.74
2022-11-16T05:31:11.165Z,51.22
2022-11-16T05:33:39.726Z,51.30
2022-11-16T05:36:09.910Z,50.17
2022-11-16T05:38:39.858Z,50.52
2022-11-16T05:41:08.649Z,50.65
2022-11-16T05:43:37.081Z,50.74
2022-11-16T05:46:15.138Z,49.79
2022-11-16T05:48:43.609Z,49.87
2022-11-16T05:51:12.519Z,49.65
2022-11-16T05:53:42.738Z,49.44
2022-11-16T05:56:14.398Z,49.83
2022-11-16T05:58:44.414Z,49.37
2022-11-16T06:01:13.314Z,49.62
2022-11-16T06:03:41.878Z,49.38
2022-11-16T06:06:10.750Z,48.86
2022-11-16T06:08:39.532Z,48.80
2022-11-16T06:11:13.640Z,49.20
2022-11-16T06:13:42.363Z,48.72
2022-11-16T06:16:11.742Z,47.89
2022-11-16T06:18:44.773Z,47.96
2022-11-16T06:21:17.492Z,48.45
2022-11-16T06:23:46.445Z,48.49
2022-11-16T06:26:16.715Z,49.09
2022-11-16T06:28:45.214Z,49.15
2022-11-16T06:31:14.952Z,49.42
2022-11-16T06:33:44.090Z,49.26
2022-11-16T06:36:21.287Z,48.34
2022-11-16T06:38:51.115Z,48.27
2022-11-16T06:41:22.839Z,47.51
2022-11-16T06:43:52.514Z,47.26
2022-11-16T06:46:25.499Z,46.65
2022-11-16T06:48:54.808Z,46.93
2022-11-16T06:51:23.869Z,47.00
2022-11-16T06:53:52.631Z,46.81
2022-11-16T06:56:24.094Z,47.19
2022-11-16T06:58:58.430Z,46.41
2022-11-16T07:01:29.431Z,46.64
2022-11-16T07:04:04.368Z,46.26
2022-11-16T07:06:34.219Z,46.35
2022-11-16T07:09:02.750Z,46.63
2022-11-16T07:11:37.079Z,45.35
2022-11-16T07:14:05.815Z,45.06
2022-11-16T07:16:36.698Z,45.79
2022-11-16T07:19:06.431Z,45.20
2022-11-16T07:21:38.326Z,44.79
2022-11-16T07:24:10.629Z,44.63
2022-11-16T07:26:40.808Z,44.99
2022-11-16T07:29:17.337Z,44.66
2022-11-16T07:32:06.069Z,44.04
2022-11-16T07:34:59.460Z,44.49
2022-11-16T07:37:29.111Z,44.78
2022-11-16T07:39:57.575Z,44.35
2022-11-16T07:42:28.831Z,44.22
2022-11-16T07:45:30.064Z,44.83
2022-11-16T07:48:02.320Z,44.71
2022-11-16T07:50:49.035Z,44.87
2022-11-16T07:53:19.314Z,44.80
2022-11-16T07:55:53.538Z,44.19
2022-11-16T07:58:24.917Z,44.18
2022-11-16T08:00:55.694Z,43.82
2022-11-16T08:03:25.016Z,43.80
2022-11-16T08:06:00.472Z,43.48
2022-11-16T08:08:30.358Z,43.25
2022-11-16T08:11:02.580Z,43.41
2022-11-16T08:13:34.714Z,43.29
2022-11-16T08:16:07.868Z,42.97
2022-11-16T08:18:37.923Z,43.36
2022-11-16T08:21:08.836Z,43.35
2022-11-16T08:23:38.581Z,43.73
2022-11-16T08:26:09.720Z,44.11
2022-11-16T08:28:41.383Z,44.17
2022-11-16T08:31:12.044Z,43.83
2022-11-16T08:33:42.049Z,44.20
2022-11-16T08:36:17.394Z,44.42
2022-11-16T08:38:48.423Z,44.77
2022-11-16T08:41:17.902Z,45.69
2022-11-16T08:43:50.604Z,45.77
2022-11-16T08:46:22.090Z,45.96
2022-11-16T08:48:59.571Z,46.55
2022-11-16T08:51:28.820Z,46.14
2022-11-16T08:54:05.289Z,46.23
2022-11-16T08:56:35.700Z,46.29
2022-11-16T08:59:06.711Z,47.37
2022-11-16T09:01:35.301Z,46.64
2022-11-16T09:04:04.149Z,46.97
2022-11-16T09:06:32.916Z,47.51
2022-11-16T09:09:01.764Z,47.07
2022-11-16T09:11:30.207Z,46.83
2022-11-16T09:13:59.062Z,46.28
2022-11-16T09:16:29.333Z,46.06
2022-11-16T09:18:58.063Z,46.32
2022-11-16T09:21:29.088Z,46.03
2022-11-16T09:23:58.825Z,46.48
2022-11-16T09:26:27.632Z,46.28
2022-11-16T09:28:58.316Z,45.95
2022-11-16T09:31:29.463Z,46.22
2022-11-16T09:33:59.734Z,46.43
2022-11-16T09:36:28.962Z,45.27
2022-11-16T09:42:17.918Z,45.25
2022-11-16T09:45:04.552Z,45.89
2022-11-16T09:47:49.225Z,45.46
2022-11-16T09:50:27.910Z,44.39
2022-11-16T09:53:01.340Z,44.23
2022-11-16T09:55:37.886Z,44.50
2022-11-16T09:58:12.928Z,44.02
2022-11-16T10:00:45.298Z,44.69
2022-11-16T10:03:16.415Z,43.67
2022-11-16T10:05:52.897Z,43.66
2022-11-16T10:08:28.534Z,43.66
2022-11-16T10:11:10.385Z,44.59
2022-11-16T10:13:50.750Z,43.23
2022-11-16T10:16:27.415Z,42.89
2022-11-16T10:19:01.260Z,42.60
2022-11-16T10:21:43.309Z,42.33
2022-11-16T10:24:47.688Z,41.48
2022-11-16T10:27:35.034Z,41.62
2022-11-16T10:30:10.495Z,41.52
2022-11-16T10:32:45.295Z,40.80
2022-11-16T10:35:19.975Z,40.16
2022-11-16T10:37:51.576Z,39.71
2022-11-16T10:40:23.474Z,40.83
2022-11-16T10:43:01.336Z,39.94
2022-11-16T10:45:39.045Z,39.54
2022-11-16T10:48:16.863Z,39.50
2022-11-16T10:50:48.981Z,38.85
2022-11-16T10:53:27.888Z,37.43
2022-11-16T10:56:12.397Z,37.46
2022-11-16T10:58:54.428Z,37.88
2022-11-16T11:01:31.180Z,38.21
2022-11-16T11:04:14.553Z,37.67
2022-11-16T11:06:44.982Z,38.06
2022-11-16T11:09:32.335Z,38.06
2022-11-16T11:12:31.840Z,36.91
2022-11-16T11:15:07.077Z,37.65
2022-11-16T11:17:37.062Z,37.68
2022-11-16T11:20:08.412Z,37.52
2022-11-16T11:22:45.456Z,36.39
2022-11-16T11:25:22.691Z,36.72
2022-11-16T11:27:51.946Z,37.14
2022-11-16T11:30:21.839Z,37.37
2022-11-16T11:32:52.963Z,37.48
2022-11-16T11:35:28.245Z,37.36
2022-11-16T11:38:07.389Z,37.65
2022-11-16T11:40:36.954Z,37.33
2022-11-16T11:43:07.095Z,36.65
2022-11-16T11:45:46.067Z,36.99
2022-11-16T11:48:31.483Z,36.87
2022-11-16T11:51:04.032Z,36.97
2022-11-16T11:53:45.311Z,36.67
2022-11-16T11:56:15.834Z,37.05
2022-11-16T11:58:45.319Z,37.06
2022-11-16T12:01:58.494Z,37.47
2022-11-16T12:04:58.731Z,37.65
2022-11-16T12:07:43.552Z,37.41
2022-11-16T12:10:27.240Z,37.46
2022-11-16T12:13:11.834Z,36.24
2022-11-16T12:15:54.919Z,36.31
2022-11-16T12:18:39.351Z,36.66
2022-11-16T12:21:14.292Z,36.00
2022-11-16T12:24:07.707Z,36.08
2022-11-16T12:26:52.832Z,36.42
2022-11-16T12:29:27.343Z,37.06
2022-11-16T12:32:22.988Z,36.86
2022-11-16T12:35:09.783Z,35.91
2022-11-16T12:37:46.666Z,36.64
2022-11-16T12:40:31.873Z,36.23
2022-11-16T12:43:12.711Z,36.45
2022-11-16T12:46:11.394Z,36.44
2022-11-16T12:49:12.641Z,35.93
2022-11-16T12:51:54.491Z,36.37
2022-11-16T12:54:38.049Z,35.99
2022-11-16T12:57:16.874Z,35.61
2022-11-16T13:00:08.019Z,35.82
2022-11-16T13:02:55.939Z,36.16
2022-11-16T13:05:26.449Z,36.72
2022-11-16T13:08:00.380Z,37.39
2022-11-16T13:10:32.709Z,36.94
2022-11-16T13:13:34.820Z,36.87
2022-11-16T13:15:57.591Z,36.88
2022-11-16T13:18:28.825Z,36.87
2022-11-16T13:21:02.977Z,37.22
2022-11-16T13:23:42.360Z,36.82
2022-11-16T13:26:21.437Z,36.61
2022-11-16T13:28:58.820Z,36.91
2022-11-16T13:31:35.307Z,37.04
2022-11-16T13:34:08.155Z,37.73
2022-11-16T13:36:45.248Z,37.96
2022-11-16T13:39:21.920Z,37.89
2022-11-16T13:41:52.903Z,38.06
2022-11-16T13:44:30.834Z,37.82
2022-11-16T13:47:05.260Z,38.28
2022-11-16T13:49:37.134Z,38.63
2022-11-16T13:52:22.609Z,38.24
2022-11-16T13:54:55.201Z,38.30
2022-11-16T13:57:27.227Z,38.06
2022-11-16T14:00:10.355Z,38.18
2022-11-16T14:02:42.161Z,38.16
2022-11-16T14:05:17.600Z,38.29
2022-11-16T14:07:49.689Z,38.82
2022-11-16T14:11:10.373Z,38.89
2022-11-16T14:13:40.683Z,39.10
2022-11-16T14:16:44.675Z,38.66
2022-11-16T14:19:51.952Z,38.60
2022-11-16T14:22:38.898Z,39.07
2022-11-16T14:25:18.284Z,38.81
2022-11-16T14:27:57.241Z,39.05
2022-11-16T14:30:30.722Z,39.24
2022-11-16T14:32:59.841Z,38.75
2022-11-16T14:35:33.839Z,39.29
2022-11-16T14:38:07.437Z,39.56
2022-11-16T14:40:46.411Z,40.24
2022-11-16T14:43:20.714Z,40.31
2022-11-16T14:48:22.192Z,41.24
2022-11-16T14:51:02.568Z,41.84
2022-11-16T14:53:34.628Z,41.96
2022-11-16T14:56:08.637Z,42.14
2022-11-16T14:58:38.142Z,42.78
2022-11-16T15:01:09.301Z,43.80
2022-11-16T15:03:43.289Z,44.05
2022-11-16T15:06:12.107Z,44.15
2022-11-16T15:08:46.738Z,44.56
2022-11-16T15:11:23.990Z,45.41
2022-11-16T15:13:52.997Z,46.09
2022-11-16T15:16:21.855Z,46.39
2022-11-16T15:18:58.874Z,46.13
2022-11-16T15:21:27.802Z,46.80
2022-11-16T15:26:46.332Z,48.00
2022-11-16T15:29:18.004Z,48.62
2022-11-16T15:31:47.231Z,48.84
2022-11-16T15:34:19.679Z,48.38
2022-11-16T15:36:49.080Z,49.27
2022-11-16T15:39:22.949Z,49.96
2022-11-16T15:41:53.135Z,49.96
2022-11-16T15:44:24.500Z,50.93
2022-11-16T15:46:56.315Z,51.25
2022-11-16T15:49:30.341Z,51.53
2022-11-16T15:52:00.282Z,51.60
2022-11-16T15:54:52.074Z,52.98
2022-11-16T15:57:21.889Z,52.79
2022-11-16T15:59:54.704Z,53.47
2022-11-16T16:02:27.491Z,54.27
2022-11-16T16:04:56.365Z,54.33
2022-11-16T16:07:41.168Z,54.75
2022-11-16T16:10:24.316Z,55.42
2022-11-16T16:12:54.749Z,55.62
2022-11-16T16:15:26.357Z,56.37
2022-11-16T16:17:55.599Z,56.84
2022-11-16T16:20:26.327Z,57.09
2022-11-16T16:22:55.346Z,57.02
2022-11-16T16:25:31.296Z,57.51
2022-11-16T16:28:00.023Z,57.63
2022-11-16T16:30:31.085Z,57.77
2022-11-16T16:32:59.961Z,57.93
2022-11-16T16:35:28.936Z,57.89
2022-11-16T16:37:59.930Z,58.93
2022-11-16T16:40:30.740Z,59.08
2022-11-16T16:42:59.176Z,59.05
2022-11-16T16:45:37.129Z,59.35
2022-11-16T16:48:06.192Z,59.67
2022-11-16T16:50:35.067Z,59.46
2022-11-16T16:53:03.693Z,58.83
2022-11-16T16:55:37.658Z,58.49
2022-11-16T16:58:07.212Z,59.16
2022-11-16T17:00:36.033Z,60.27
2022-11-16T17:03:04.601Z,59.87
2022-11-16T17:05:34.040Z,59.90
2022-11-16T17:08:03.015Z,60.16
2022-11-16T17:10:33.176Z,60.13
2022-11-16T17:13:03.202Z,60.06
2022-11-16T17:15:32.035Z,60.49
2022-11-16T17:18:00.901Z,59.79
2022-11-16T17:20:29.654Z,60.41
2022-11-16T17:22:58.254Z,60.40
2022-11-16T17:25:27.401Z,60.33
2022-11-16T17:27:57.560Z,60.27
2022-11-16T17:30:26.480Z,60.17
2022-11-16T17:32:55.327Z,60.10
2022-11-16T17:35:24.353Z,59.61
2022-11-16T17:37:53.044Z,59.87
2022-11-16T17:40:22.212Z,60.40
2022-11-16T17:42:50.674Z,59.96
2022-11-16T17:45:20.869Z,60.14
2022-11-16T17:47:49.294Z,59.79
2022-11-16T17:50:18.395Z,59.60
2022-11-16T17:52:46.870Z,59.87
2022-11-16T17:55:16.148Z,60.04
2022-11-16T17:57:44.706Z,59.73
2022-11-16T18:00:14.687Z,60.14
2022-11-16T18:02:45.082Z,61.10
2022-11-16T18:05:13.964Z,60.25
2022-11-16T18:07:42.621Z,60.24
2022-11-16T18:10:16.283Z,60.12
2022-11-16T18:12:47.504Z,59.98
2022-11-16T18:15:31.849Z,60.28
2022-11-16T18:18:01.848Z,60.05
2022-11-16T18:20:31.800Z,60.83
2022-11-16T18:23:00.217Z,60.37
2022-11-16T18:25:29.016Z,59.45
2022-11-16T18:27:57.729Z,60.36
2022-11-16T18:30:26.669Z,60.79
2022-11-16T18:32:55.619Z,61.10
2022-11-16T18:35:25.783Z,60.88
2022-11-16T18:37:54.298Z,60.91
2022-11-16T18:40:23.833Z,60.81
2022-11-16T18:42:53.499Z,60.96
2022-11-16T18:45:23.241Z,61.26
2022-11-16T18:47:51.844Z,61.52
2022-11-16T18:50:26.520Z,61.70
2022-11-16T18:52:57.872Z,60.67
2022-11-16T18:55:26.812Z,60.91
2022-11-16T18:57:55.208Z,60.87
2022-11-16T19:00:24.306Z,60.21
2022-11-16T19:02:53.213Z,61.05
2022-11-16T19:05:22.598Z,60.43
2022-11-16T19:07:51.078Z,60.62
2022-11-16T19:10:21.259Z,60.46
2022-11-16T19:12:49.758Z,60.84
2022-11-16T19:15:18.825Z,60.82
2022-11-16T19:18:06.620Z,61.35
2022-11-16T19:20:36.606Z,61.26
2022-11-16T19:23:05.390Z,60.51
2022-11-16T19:25:35.599Z,60.59
2022-11-16T19:28:05.666Z,60.35
2022-11-16T19:30:34.491Z,60.42
2022-11-16T19:33:04.095Z,59.90
2022-11-16T19:35:32.818Z,59.69
2022-11-16T19:38:01.149Z,59.47
2022-11-16T19:40:29.932Z,58.81
2022-11-16T19:42:59.790Z,57.91
2022-11-16T19:45:28.651Z,58.51
2022-11-16T19:47:57.326Z,58.01
2022-11-16T19:50:26.244Z,57.60
2022-11-16T19:52:54.701Z,57.21
2022-11-16T19:55:23.507Z,57.08
2022-11-16T19:57:51.939Z,56.56
2022-11-16T20:00:22.331Z,56.85
2022-11-16T20:02:50.746Z,56.01
2022-11-16T20:05:20.306Z,55.45
2022-11-16T20:07:50.335Z,55.41
2022-11-16T20:10:19.470Z,54.94
2022-11-16T20:12:49.716Z,54.51
2022-11-16T20:15:18.545Z,53.90
2022-11-16T20:17:48.342Z,53.91
2022-11-16T20:20:17.072Z,53.86
2022-11-16T20:22:45.707Z,53.23
2022-11-16T20:25:15.008Z,52.85
2022-11-16T20:27:43.538Z,52.63
2022-11-16T20:30:13.372Z,52.41
2022-11-16T20:32:41.951Z,52.08
2022-11-16T20:35:17.717Z,51.95
2022-11-16T20:37:47.477Z,51.59
2022-11-16T20:40:16.813Z,51.33
2022-11-16T20:42:45.454Z,51.34
2022-11-16T20:45:14.233Z,51.98
2022-11-16T20:47:42.641Z,51.74
2022-11-16T20:50:12.851Z,52.30
2022-11-16T20:52:44.289Z,52.77
2022-11-16T20:55:14.926Z,52.17
2022-11-16T20:57:43.363Z,51.79
2022-11-16T21:00:13.520Z,51.84
2022-11-16T21:02:41.856Z,52.12
2022-11-16T21:05:12.226Z,51.77
2022-11-16T21:07:44.041Z,51.42
2022-11-16T21:10:21.513Z,52.34
2022-11-16T21:13:07.837Z,52.03
2022-11-16T21:15:36.598Z,51.78
2022-11-16T21:18:05.155Z,53.35
2022-11-16T21:20:35.179Z,56.53
2022-11-16T21:23:03.688Z,58.98
2022-11-16T21:25:33.305Z,60.89
2022-11-16T21:28:01.892Z,61.71
2022-11-16T21:30:30.648Z,60.96
2022-11-16T21:32:59.134Z,59.54
2022-11-16T21:35:27.933Z,58.07
2022-11-16T21:37:57.750Z,57.11
2022-11-16T21:40:26.548Z,56.20
2022-11-16T21:42:55.016Z,55.58
2022-11-16T21:45:23.899Z,54.96
2022-11-16T21:47:52.372Z,54.42
2022-11-16T21:50:36.296Z,54.49
2022-11-16T21:53:06.965Z,54.88
2022-11-16T21:55:36.546Z,55.38
2022-11-16T21:58:05.069Z,55.24
2022-11-16T22:00:33.940Z,55.62
2022-11-16T22:03:02.373Z,55.52
2022-11-16T22:05:48.531Z,56.16
2022-11-16T22:08:18.525Z,55.68
2022-11-16T22:10:51.842Z,55.56
2022-11-16T22:13:20.468Z,54.94
2022-11-16T22:15:49.248Z,55.13
2022-11-16T22:18:17.746Z,54.67
2022-11-16T22:20:48.841Z,54.97
2022-11-16T22:23:23.315Z,54.75
2022-11-16T22:25:53.437Z,54.48
2022-11-16T22:28:22.253Z,54.43
2022-11-16T22:30:52.224Z,54.20
2022-11-16T22:33:21.273Z,53.95
2022-11-16T22:35:50.106Z,54.44
2022-11-16T22:38:20.708Z,54.54
2022-11-16T22:40:51.630Z,54.34
2022-11-16T22:43:20.340Z,54.23
2022-11-16T22:45:49.368Z,54.13
2022-11-16T22:48:18.182Z,54.05
2022-11-16T22:50:47.026Z,54.30
2022-11-16T22:53:15.852Z,54.06
2022-11-16T22:55:46.073Z,54.31
2022-11-16T22:58:14.737Z,54.93
2022-11-16T23:00:43.735Z,55.29
2022-11-16T23:03:12.189Z,55.50
2022-11-16T23:05:41.069Z,57.15
2022-11-16T23:08:09.563Z,59.77
2022-11-16T23:10:58.436Z,59.87
2022-11-16T23:13:45.517Z,58.65
2022-11-16T23:16:14.363Z,59.11
2022-11-16T23:18:42.922Z,63.33
2022-11-16T23:21:29.709Z,65.88
2022-11-16T23:24:20.940Z,66.56
2022-11-16T23:27:07.525Z,68.22
2022-11-16T23:29:38.467Z,70.63
2022-11-16T23:32:08.571Z,72.16
2022-11-16T23:34:36.970Z,72.37
2022-11-16T23:37:07.136Z,69.85
2022-11-16T23:39:35.703Z,68.42
2022-11-16T23:42:22.545Z,69.53
2022-11-16T23:44:52.331Z,73.18
2022-11-16T23:47:21.312Z,73.83
2022-11-16T23:49:49.848Z,71.59
2022-11-16T23:52:19.580Z,71.76
2022-11-16T23:54:48.128Z,69.81
2022-11-16T23:57:16.901Z,68.29
2022-11-16T23:59:45.490Z,67.36
